<?xml version="1.0" encoding="UTF-8" standalone="no" ?>
<gpx xmlns="http://www.topografix.com/GPX/1/1" xmlns:xsi="http://www.w3.org/2001/XMLSchema-instance" xsi:schemaLocation="http://www.topografix.com/GPX/1/1 http://www.topografix.com/GPX/1/1/gpx.xsd" version="1.1" creator="VisuGPX - https://www.visugpx.com">
  <metadata>
    <name>Ligne 2 Genève Plage - Onex Cité</name>
  </metadata>
  <trk>
    <name><![CDATA[Ligne 2 Genève Plage - Onex Cité_1]]></name>
    <trkseg>
      <trkpt lat="46.21138" lon="6.17188">
        <ele>384</ele>
        <time>2020-04-23T20:54:51.000Z</time>
      </trkpt>
      <trkpt lat="46.20948" lon="6.16778">
        <ele>382.8</ele>
        <time>2020-04-23T20:55:59.354Z</time>
      </trkpt>
      <trkpt lat="46.20874" lon="6.16612">
        <ele>379.1</ele>
        <time>2020-04-23T20:56:26.766Z</time>
      </trkpt>
      <trkpt lat="46.20828" lon="6.16508">
        <ele>379</ele>
        <time>2020-04-23T20:56:43.834Z</time>
      </trkpt>
      <trkpt lat="46.20777" lon="6.16386">
        <ele>382.1</ele>
        <time>2020-04-23T20:57:03.449Z</time>
      </trkpt>
      <trkpt lat="46.20737" lon="6.16309">
        <ele>386.3</ele>
        <time>2020-04-23T20:57:16.814Z</time>
      </trkpt>
      <trkpt lat="46.20712" lon="6.16265">
        <ele>387.4</ele>
        <time>2020-04-23T20:57:24.730Z</time>
      </trkpt>
      <trkpt lat="46.2066" lon="6.16191">
        <ele>384.8</ele>
        <time>2020-04-23T20:57:39.337Z</time>
      </trkpt>
      <trkpt lat="46.2052" lon="6.16027">
        <ele>385.2</ele>
        <time>2020-04-23T20:58:15.478Z</time>
      </trkpt>
      <trkpt lat="46.20482" lon="6.15972">
        <ele>385.2</ele>
        <time>2020-04-23T20:58:26.213Z</time>
      </trkpt>
      <trkpt lat="46.20432" lon="6.1588">
        <ele>383.2</ele>
        <time>2020-04-23T20:58:42.415Z</time>
      </trkpt>
      <trkpt lat="46.2038" lon="6.15786">
        <ele>385.7</ele>
        <time>2020-04-23T20:58:59.115Z</time>
      </trkpt>
      <trkpt lat="46.20314" lon="6.15721">
        <ele>387</ele>
        <time>2020-04-23T20:59:14.984Z</time>
      </trkpt>
      <trkpt lat="46.20262" lon="6.15674">
        <ele>386.8</ele>
        <time>2020-04-23T20:59:27.335Z</time>
      </trkpt>
      <trkpt lat="46.20245" lon="6.15645">
        <ele>387.8</ele>
        <time>2020-04-23T20:59:32.514Z</time>
      </trkpt>
      <trkpt lat="46.2024" lon="6.1563">
        <ele>388.5</ele>
        <time>2020-04-23T20:59:34.940Z</time>
      </trkpt>
      <trkpt lat="46.20238" lon="6.15609">
        <ele>388.9</ele>
        <time>2020-04-23T20:59:37.853Z</time>
      </trkpt>
      <trkpt lat="46.20353" lon="6.15049">
        <ele>386</ele>
        <time>2020-04-23T21:00:58.729Z</time>
      </trkpt>
      <trkpt lat="46.20395" lon="6.14852">
        <ele>388.8</ele>
        <time>2020-04-23T21:01:27.264Z</time>
      </trkpt>
      <trkpt lat="46.20441" lon="6.14646">
        <ele>389</ele>
        <time>2020-04-23T21:01:57.250Z</time>
      </trkpt>
      <trkpt lat="46.20451" lon="6.14597">
        <ele>390</ele>
        <time>2020-04-23T21:02:04.309Z</time>
      </trkpt>
      <trkpt lat="46.20457" lon="6.14537">
        <ele>391.7</ele>
        <time>2020-04-23T21:02:12.706Z</time>
      </trkpt>
      <trkpt lat="46.20457" lon="6.14493">
        <ele>393</ele>
        <time>2020-04-23T21:02:18.800Z</time>
      </trkpt>
      <trkpt lat="46.20453" lon="6.14454">
        <ele>393</ele>
        <time>2020-04-23T21:02:24.286Z</time>
      </trkpt>
      <trkpt lat="46.20435" lon="6.14373">
        <ele>392.4</ele>
        <time>2020-04-23T21:02:36.057Z</time>
      </trkpt>
      <trkpt lat="46.20442" lon="6.14311">
        <ele>387.8</ele>
        <time>2020-04-23T21:02:44.877Z</time>
      </trkpt>
      <trkpt lat="46.20438" lon="6.14288">
        <ele>386.7</ele>
        <time>2020-04-23T21:02:48.194Z</time>
      </trkpt>
      <trkpt lat="46.20419" lon="6.14194">
        <ele>385.8</ele>
        <time>2020-04-23T21:03:01.668Z</time>
      </trkpt>
      <trkpt lat="46.20411" lon="6.14124">
        <ele>385</ele>
        <time>2020-04-23T21:03:11.552Z</time>
      </trkpt>
      <trkpt lat="46.20409" lon="6.14117">
        <ele>384.8</ele>
        <time>2020-04-23T21:03:12.549Z</time>
      </trkpt>
      <trkpt lat="46.20368" lon="6.14124">
        <ele>384.9</ele>
        <time>2020-04-23T21:03:20.772Z</time>
      </trkpt>
      <trkpt lat="46.203" lon="6.14133">
        <ele>385.5</ele>
        <time>2020-04-23T21:03:34.600Z</time>
      </trkpt>
      <trkpt lat="46.20284" lon="6.1413">
        <ele>385.4</ele>
        <time>2020-04-23T21:03:37.669Z</time>
      </trkpt>
      <trkpt lat="46.20201" lon="6.1419">
        <ele>383.7</ele>
        <time>2020-04-23T21:03:56.280Z</time>
      </trkpt>
      <trkpt lat="46.20196" lon="6.14191">
        <ele>383.4</ele>
        <time>2020-04-23T21:03:57.405Z</time>
      </trkpt>
      <trkpt lat="46.20192" lon="6.14184">
        <ele>383.2</ele>
        <time>2020-04-23T21:03:58.580Z</time>
      </trkpt>
      <trkpt lat="46.20176" lon="6.1414">
        <ele>382.4</ele>
        <time>2020-04-23T21:04:05.527Z</time>
      </trkpt>
      <trkpt lat="46.2017" lon="6.14125">
        <ele>382.1</ele>
        <time>2020-04-23T21:04:07.924Z</time>
      </trkpt>
      <trkpt lat="46.20142" lon="6.14043">
        <ele>380.9</ele>
        <time>2020-04-23T21:04:20.621Z</time>
      </trkpt>
      <trkpt lat="46.20133" lon="6.1401">
        <ele>380.9</ele>
        <time>2020-04-23T21:04:25.423Z</time>
      </trkpt>
      <trkpt lat="46.20142" lon="6.13948">
        <ele>381.8</ele>
        <time>2020-04-23T21:04:34.211Z</time>
      </trkpt>
      <trkpt lat="46.20138" lon="6.13791">
        <ele>380.3</ele>
        <time>2020-04-23T21:04:55.995Z</time>
      </trkpt>
      <trkpt lat="46.20138" lon="6.1378">
        <ele>380.2</ele>
        <time>2020-04-23T21:04:57.556Z</time>
      </trkpt>
      <trkpt lat="46.20135" lon="6.13776">
        <ele>380.2</ele>
        <time>2020-04-23T21:04:58.423Z</time>
      </trkpt>
      <trkpt lat="46.1996" lon="6.1375">
        <ele>383</ele>
        <time>2020-04-23T21:05:33.509Z</time>
      </trkpt>
      <trkpt lat="46.19876" lon="6.13716">
        <ele>381</ele>
        <time>2020-04-23T21:05:51.048Z</time>
      </trkpt>
      <trkpt lat="46.19843" lon="6.13696">
        <ele>380.2</ele>
        <time>2020-04-23T21:05:58.264Z</time>
      </trkpt>
      <trkpt lat="46.19813" lon="6.1367">
        <ele>381.4</ele>
        <time>2020-04-23T21:06:05.151Z</time>
      </trkpt>
      <trkpt lat="46.19782" lon="6.13638">
        <ele>382.3</ele>
        <time>2020-04-23T21:06:12.806Z</time>
      </trkpt>
      <trkpt lat="46.19778" lon="6.13629">
        <ele>382.3</ele>
        <time>2020-04-23T21:06:14.188Z</time>
      </trkpt>
      <trkpt lat="46.19783" lon="6.13611">
        <ele>382.3</ele>
        <time>2020-04-23T21:06:16.878Z</time>
      </trkpt>
      <trkpt lat="46.19999" lon="6.1323">
        <ele>374.8</ele>
        <time>2020-04-23T21:07:25.173Z</time>
      </trkpt>
      <trkpt lat="46.20049" lon="6.12946">
        <ele>375.3</ele>
        <time>2020-04-23T21:08:05.647Z</time>
      </trkpt>
      <trkpt lat="46.20048" lon="6.12931">
        <ele>375</ele>
        <time>2020-04-23T21:08:07.807Z</time>
      </trkpt>
      <trkpt lat="46.19924" lon="6.12806">
        <ele>382.2</ele>
        <time>2020-04-23T21:08:38.052Z</time>
      </trkpt>
      <trkpt lat="46.19879" lon="6.12776">
        <ele>385.5</ele>
        <time>2020-04-23T21:08:47.909Z</time>
      </trkpt>
      <trkpt lat="46.19524" lon="6.12665">
        <ele>397.4</ele>
        <time>2020-04-23T21:10:00.622Z</time>
      </trkpt>
      <trkpt lat="46.19498" lon="6.1265">
        <ele>399.9</ele>
        <time>2020-04-23T21:10:06.253Z</time>
      </trkpt>
      <trkpt lat="46.19471" lon="6.12615">
        <ele>403.6</ele>
        <time>2020-04-23T21:10:13.524Z</time>
      </trkpt>
      <trkpt lat="46.19458" lon="6.12585">
        <ele>406.9</ele>
        <time>2020-04-23T21:10:18.432Z</time>
      </trkpt>
      <trkpt lat="46.19425" lon="6.12476">
        <ele>411.6</ele>
        <time>2020-04-23T21:10:34.847Z</time>
      </trkpt>
      <trkpt lat="46.19422" lon="6.12434">
        <ele>413.1</ele>
        <time>2020-04-23T21:10:40.762Z</time>
      </trkpt>
      <trkpt lat="46.19433" lon="6.12404">
        <ele>413.1</ele>
        <time>2020-04-23T21:10:45.449Z</time>
      </trkpt>
      <trkpt lat="46.1946" lon="6.12363">
        <ele>412.1</ele>
        <time>2020-04-23T21:10:53.386Z</time>
      </trkpt>
      <trkpt lat="46.19597" lon="6.12177">
        <ele>415</ele>
        <time>2020-04-23T21:11:30.877Z</time>
      </trkpt>
      <trkpt lat="46.19618" lon="6.12131">
        <ele>417.6</ele>
        <time>2020-04-23T21:11:38.607Z</time>
      </trkpt>
      <trkpt lat="46.19629" lon="6.12103">
        <ele>419.4</ele>
        <time>2020-04-23T21:11:43.069Z</time>
      </trkpt>
      <trkpt lat="46.19634" lon="6.12082">
        <ele>420.6</ele>
        <time>2020-04-23T21:11:46.079Z</time>
      </trkpt>
      <trkpt lat="46.19659" lon="6.11667">
        <ele>425.9</ele>
        <time>2020-04-23T21:12:43.805Z</time>
      </trkpt>
      <trkpt lat="46.19667" lon="6.11644">
        <ele>425.7</ele>
        <time>2020-04-23T21:12:47.429Z</time>
      </trkpt>
      <trkpt lat="46.19681" lon="6.11625">
        <ele>424.9</ele>
        <time>2020-04-23T21:12:51.266Z</time>
      </trkpt>
      <trkpt lat="46.197" lon="6.1161">
        <ele>424.3</ele>
        <time>2020-04-23T21:12:55.555Z</time>
      </trkpt>
      <trkpt lat="46.19711" lon="6.11597">
        <ele>424.2</ele>
        <time>2020-04-23T21:12:58.515Z</time>
      </trkpt>
      <trkpt lat="46.19713" lon="6.11586">
        <ele>424.4</ele>
        <time>2020-04-23T21:13:00.009Z</time>
      </trkpt>
      <trkpt lat="46.19685" lon="6.11346">
        <ele>417.2</ele>
        <time>2020-04-23T21:13:33.682Z</time>
      </trkpt>
      <trkpt lat="46.19678" lon="6.11324">
        <ele>416.6</ele>
        <time>2020-04-23T21:13:37.040Z</time>
      </trkpt>
      <trkpt lat="46.19669" lon="6.11315">
        <ele>416.1</ele>
        <time>2020-04-23T21:13:39.226Z</time>
      </trkpt>
      <trkpt lat="46.19516" lon="6.11366">
        <ele>418.7</ele>
        <time>2020-04-23T21:14:10.710Z</time>
      </trkpt>
      <trkpt lat="46.19502" lon="6.11367">
        <ele>418.6</ele>
        <time>2020-04-23T21:14:13.464Z</time>
      </trkpt>
      <trkpt lat="46.19495" lon="6.11364">
        <ele>418.7</ele>
        <time>2020-04-23T21:14:15.016Z</time>
      </trkpt>
      <trkpt lat="46.19487" lon="6.11356">
        <ele>418.6</ele>
        <time>2020-04-23T21:14:16.874Z</time>
      </trkpt>
      <trkpt lat="46.19482" lon="6.11337">
        <ele>418</ele>
        <time>2020-04-23T21:14:19.649Z</time>
      </trkpt>
      <trkpt lat="46.19477" lon="6.11307">
        <ele>418.3</ele>
        <time>2020-04-23T21:14:23.958Z</time>
      </trkpt>
      <trkpt lat="46.19459" lon="6.11067">
        <ele>416.2</ele>
        <time>2020-04-23T21:14:57.398Z</time>
      </trkpt>
      <trkpt lat="46.19447" lon="6.11002">
        <ele>417.5</ele>
        <time>2020-04-23T21:15:06.735Z</time>
      </trkpt>
      <trkpt lat="46.19415" lon="6.109">
        <ele>421.4</ele>
        <time>2020-04-23T21:15:22.230Z</time>
      </trkpt>
      <trkpt lat="46.19414" lon="6.10883">
        <ele>421.9</ele>
        <time>2020-04-23T21:15:24.619Z</time>
      </trkpt>
      <trkpt lat="46.19406" lon="6.10867">
        <ele>422.4</ele>
        <time>2020-04-23T21:15:27.370Z</time>
      </trkpt>
      <trkpt lat="46.19403" lon="6.10834">
        <ele>423.2</ele>
        <time>2020-04-23T21:15:31.953Z</time>
      </trkpt>
      <trkpt lat="46.19402" lon="6.10821">
        <ele>422.9</ele>
        <time>2020-04-23T21:15:33.743Z</time>
      </trkpt>
      <trkpt lat="46.19399" lon="6.10817">
        <ele>422.8</ele>
        <time>2020-04-23T21:15:34.533Z</time>
      </trkpt>
      <trkpt lat="46.19392" lon="6.10814">
        <ele>422.8</ele>
        <time>2020-04-23T21:15:36.137Z</time>
      </trkpt>
      <trkpt lat="46.19387" lon="6.1081">
        <ele>422.7</ele>
        <time>2020-04-23T21:15:37.209Z</time>
      </trkpt>
      <trkpt lat="46.19287" lon="6.10532">
        <ele>419.9</ele>
        <time>2020-04-23T21:16:20.549Z</time>
      </trkpt>
      <trkpt lat="46.19246" lon="6.10426">
        <ele>420.1</ele>
        <time>2020-04-23T21:16:37.420Z</time>
      </trkpt>
      <trkpt lat="46.19246" lon="6.10414">
        <ele>420.1</ele>
        <time>2020-04-23T21:16:39.129Z</time>
      </trkpt>
      <trkpt lat="46.19245" lon="6.10405">
        <ele>420.1</ele>
        <time>2020-04-23T21:16:40.355Z</time>
      </trkpt>
      <trkpt lat="46.1924" lon="6.104">
        <ele>420.2</ele>
        <time>2020-04-23T21:16:41.411Z</time>
      </trkpt>
      <trkpt lat="46.19233" lon="6.10392">
        <ele>420.4</ele>
        <time>2020-04-23T21:16:43.210Z</time>
      </trkpt>
      <trkpt lat="46.19181" lon="6.10234">
        <ele>423.8</ele>
        <time>2020-04-23T21:17:07.560Z</time>
      </trkpt>
      <trkpt lat="46.1918" lon="6.10226">
        <ele>423.6</ele>
        <time>2020-04-23T21:17:08.677Z</time>
      </trkpt>
      <trkpt lat="46.19181" lon="6.10217">
        <ele>423.2</ele>
        <time>2020-04-23T21:17:09.875Z</time>
      </trkpt>
      <trkpt lat="46.19178" lon="6.10211">
        <ele>423.3</ele>
        <time>2020-04-23T21:17:10.947Z</time>
      </trkpt>
      <trkpt lat="46.19173" lon="6.10208">
        <ele>423.8</ele>
        <time>2020-04-23T21:17:11.982Z</time>
      </trkpt>
      <trkpt lat="46.19072" lon="6.09904">
        <ele>419</ele>
        <time>2020-04-23T21:17:58.698Z</time>
      </trkpt>
      <trkpt lat="46.19064" lon="6.09884">
        <ele>420.3</ele>
        <time>2020-04-23T21:18:01.885Z</time>
      </trkpt>
      <trkpt lat="46.19056" lon="6.09872">
        <ele>421.1</ele>
        <time>2020-04-23T21:18:04.198Z</time>
      </trkpt>
      <trkpt lat="46.19047" lon="6.09866">
        <ele>421.7</ele>
        <time>2020-04-23T21:18:06.126Z</time>
      </trkpt>
      <trkpt lat="46.19034" lon="6.09863">
        <ele>422.4</ele>
        <time>2020-04-23T21:18:08.765Z</time>
      </trkpt>
      <trkpt lat="46.19015" lon="6.09873">
        <ele>422.5</ele>
        <time>2020-04-23T21:18:12.906Z</time>
      </trkpt>
      <trkpt lat="46.18841" lon="6.09989">
        <ele>422.3</ele>
        <time>2020-04-23T21:18:51.207Z</time>
      </trkpt>
    </trkseg>
  </trk>
</gpx>